الصفحة الرئيسية
METAR-TAF:

METAR-TAF

مطار :

ليما, بيرو

دائرة عرض: 12-00S, خط طول: 077-07W, ارتفاع: 12 متر

مراقبة الطقس الحالي

تاريخ ووقت الإصدار 3 دقيقة قبل الساعة 13:00UTC
ريح 7 عقدة من الجنوب/الجنوب الشرقي
درجة الحرارة 20°درجة مئوية
الرطوبة 88%
ضغط 1013 hPa
الرؤية 10 كم أو أكثر
غيوم متفرقة على ارتفاع 600 قدم

METAR: SPJC 231300Z 16007KT 9999 SCT006 20/18 Q1013 NOSIG RMK PP000

زمن: 08:03 (13:03 UTC)

توقعات

تاريخ ووقت الإصدار 2ساعات و 3 دقيقة قبل الساعة 11:00UTC
التوقعات صالحة من23 الساعة 12 UTC إلى 24 الساعة 12 UTC
ريح 4 عقدة من الجنوب
الرؤية 10 كم أو أكثر
الغيوم لا تقل 1500 م ولا وجود لمزنة ركامية السحاب الأسود
من 23 الساعة 1500 UTC
ريح 7 عقدة من الغرب/الجنوب الغربي
الرؤية 10 كم أو أكثر
الغيوم لا تقل 1500 م ولا وجود لمزنة ركامية السحاب الأسود
أصبح
من 23 الساعة 18 UTC إلى 23 الساعة 20 UTC
ريح 12 عقدة من الجنوب
أصبح
من 24 الساعة 00 UTC إلى 24 الساعة 02 UTC
ريح 6 عقدة من الجنوب

TAF: SPJC 231100Z 2312/2412 18004KT CAVOK TX24/2318Z TN17/2411Z FM231500 25007KT CAVOK BECMG 2318/2320 18012KT BECMG 2400/2402 17006KT

أرصاد الطقس والتوقعات من أكثر من 4000 مطار (تقارير الطقس للمطار METAR والتنبؤ بالطقس بالمطارTAF).

المحطات المتاحة هي النقط الصفراء والحمراء على الخريطة.

حرك المؤشر فوق النقطة لمعرفة اسم المحطة.

ثم انقر لمعرفة أرصاد وتوقعات الطقس.

لتغيير الخارطة: اضغط على الأزرار الخضراء مع رمز الصليب الأسود للتكبير. على الزر الأخضر مع شرطة للتصغير، أو على الأسهم الخضراء للخرائط المجاورة.


METAR-TAF: